Terminal Aerodrome Forecast
Issued by NWS

Home | Current Version | Previous Version | Text Only | Print | Product List | Glossary On
Versions: 1 2 3 4 5 6 7 8 9 10 11 12 13 14 15 16 17
821
FTUS43 KIND 161120
TAFHUF
TAF
KHUF 161120Z 1612/1712 11005KT 5SM BR OVC012
     FM161500 12006KT 1 1/2SM BR OVC008
     FM161700 13007KT P6SM OVC003
     FM161900 13007KT P6SM VCSH OVC003
     FM162200 13007KT 2SM -SHRA OVC003
     FM170300 15009KT 4SM -SHRA OVC010
     FM170400 16010KT 4SM -SHRA OVC008
     FM170600 18011KT P6SM OVC008
     FM170900 20010KT P6SM OVC003
     FM171100 23010KT P6SM OVC015=

USA.gov is the U.S. government's official web portal to all federal, state and local government web resources and services.